Time;durP1;ratioP1;P1;durP2;ratioP2;P2;SDS_P1;SDS_P2;PMS_P1;PMS_P2;Temp;Humidity;BMP_temperature;BMP_pressure;BME280_temperature;BME280_humidity;BME280_pressure;Samples;Min_cycle;Max_cycle;Signal;HPM_P1;HPM_P2
2022/01/04 00:01:15;;;;;;;3.40;2.10;;;;;;;;;;6339865;28;20536;-79
2022/01/04 00:04:20;;;;;;;12.13;10.93;;;;;;;;;;6341463;28;20192;-79
2022/01/04 00:07:25;;;;;;;33.10;24.67;;;;;;;;;;6339882;28;20237;-79
2022/01/04 00:10:30;;;;;;;4.40;1.60;;;;;;;;;;6341078;28;20187;-79
2022/01/04 00:13:35;;;;;;;9.20;1.90;;;;;;;;;;6340489;28;20234;-79
2022/01/04 00:16:39;;;;;;;17.47;6.30;;;;;;;;;;6322472;28;20229;-79
2022/01/04 00:19:43;;;;;;;6.77;1.60;;;;;;;;;;6340719;28;20214;-79
2022/01/04 00:22:48;;;;;;;11.03;3.97;;;;;;;;;;6340240;28;20240;-79
2022/01/04 00:25:53;;;;;;;21.63;5.97;;;;;;;;;;6340368;28;20186;-79
2022/01/04 00:28:58;;;;;;;75.30;23.07;;;;;;;;;;6339810;28;20228;-79
2022/01/04 00:32:02;;;;;;;4.27;3.97;;;;;;;;;;6338870;28;20390;-79
2022/01/04 00:35:07;;;;;;;76.27;40.93;;;;;;;;;;6340309;28;20183;-79
2022/01/04 00:38:13;;;;;;;98.83;45.20;;;;;;;;;;6340317;28;20246;-79
2022/01/04 00:41:19;;;;;;;110.67;45.07;;;;;;;;;;6339448;28;20476;-79
2022/01/04 00:44:23;;;;;;;148.20;48.03;;;;;;;;;;6340312;28;20184;-79
2022/01/04 00:47:40;;;;;;;39.93;25.37;;;;;;;;;;6339311;28;20237;-79
2022/01/04 00:50:44;;;;;;;144.63;49.00;;;;;;;;;;6339555;28;20381;-78
2022/01/04 00:53:48;;;;;;;8.37;4.60;;;;;;;;;;6340272;28;20185;-79
2022/01/04 00:56:54;;;;;;;5.07;1.83;;;;;;;;;;6340283;28;20261;-79
2022/01/04 00:59:58;;;;;;;4.13;1.90;;;;;;;;;;6341255;28;20210;-79
2022/01/04 01:03:02;;;;;;;11.57;9.87;;;;;;;;;;6341756;28;20350;-79
2022/01/04 01:06:07;;;;;;;9.33;1.67;;;;;;;;;;6345803;28;20186;-79
2022/01/04 01:09:12;;;;;;;4.67;1.60;;;;;;;;;;6345073;28;20214;-78
2022/01/04 01:12:17;;;;;;;6.27;1.70;;;;;;;;;;6345555;28;20186;-78
2022/01/04 01:15:22;;;;;;;10.33;1.73;;;;;;;;;;6345320;28;20197;-79
2022/01/04 01:18:26;;;;;;;4.20;2.43;;;;;;;;;;6344374;28;20219;-79
2022/01/04 01:21:30;;;;;;;4.57;3.63;;;;;;;;;;6344845;28;20223;-78
2022/01/04 01:24:34;;;;;;;3.50;3.17;;;;;;;;;;6344922;28;20236;-78
2022/01/04 01:27:40;;;;;;;10.20;2.03;;;;;;;;;;6344261;28;20378;-79
2022/01/04 01:30:45;;;;;;;7.60;1.30;;;;;;;;;;6345120;28;20184;-79
2022/01/04 01:33:49;;;;;;;5.20;1.97;;;;;;;;;;6345049;28;20191;-78
2022/01/04 01:36:53;;;;;;;7.07;3.10;;;;;;;;;;6344361;28;20258;-79
2022/01/04 01:39:58;;;;;;;3.73;1.80;;;;;;;;;;6344272;28;20324;-78
2022/01/04 01:43:04;;;;;;;3.63;1.67;;;;;;;;;;6343927;28;20276;-79
2022/01/04 01:46:10;;;;;;;2.17;1.20;;;;;;;;;;6343010;28;20184;-78
2022/01/04 01:49:14;;;;;;;2.53;2.33;;;;;;;;;;6343287;28;20263;-78
2022/01/04 01:52:19;;;;;;;6.17;1.50;;;;;;;;;;6344061;28;20188;-78
2022/01/04 01:55:24;;;;;;;5.03;1.30;;;;;;;;;;6343287;28;20296;-78
2022/01/04 01:58:29;;;;;;;1.43;1.33;;;;;;;;;;6343231;28;20221;-78
2022/01/04 02:01:34;;;;;;;5.20;1.27;;;;;;;;;;6343417;28;20191;-78
2022/01/04 02:04:38;;;;;;;9.00;1.13;;;;;;;;;;6343223;28;20192;-78
2022/01/04 02:07:44;;;;;;;2.47;1.40;;;;;;;;;;6342389;28;20325;-78
2022/01/04 02:10:48;;;;;;;4.17;2.37;;;;;;;;;;6342645;28;20197;-78
2022/01/04 02:13:54;;;;;;;1.20;1.20;;;;;;;;;;6342545;28;20273;-78
2022/01/04 02:16:58;;;;;;;2.30;1.17;;;;;;;;;;6342534;28;20193;-78
2022/01/04 02:20:06;;;;;;;1.37;1.20;;;;;;;;;;6341842;28;20218;-79
2022/01/04 02:23:11;;;;;;;3.30;1.10;;;;;;;;;;6344693;28;20186;-78
2022/01/04 02:26:15;;;;;;;1.40;1.40;;;;;;;;;;6360167;28;20482;-78
2022/01/04 02:29:19;;;;;;;1.27;1.17;;;;;;;;;;6344540;28;20221;-79
2022/01/04 02:32:23;;;;;;;11.40;8.67;;;;;;;;;;6344852;28;20249;-79
2022/01/04 02:35:31;;;;;;;9.20;1.33;;;;;;;;;;6344016;28;20351;-78
2022/01/04 02:38:37;;;;;;;5.13;1.60;;;;;;;;;;6344715;28;20249;-79
2022/01/04 02:41:41;;;;;;;4.93;1.50;;;;;;;;;;6345327;28;20245;-78
2022/01/04 02:44:46;;;;;;;1.30;1.30;;;;;;;;;;6345332;28;20204;-78
2022/01/04 02:47:50;;;;;;;5.17;1.63;;;;;;;;;;6346117;28;20310;-77
2022/01/04 02:50:56;;;;;;;5.43;1.90;;;;;;;;;;6343304;28;20212;-77
2022/01/04 02:54:00;;;;;;;11.33;1.40;;;;;;;;;;6343541;28;20186;-78
2022/01/04 02:57:05;;;;;;;6.90;1.60;;;;;;;;;;6343663;28;20193;-78
2022/01/04 03:00:12;;;;;;;6.50;1.43;;;;;;;;;;6340881;28;20562;-78
2022/01/04 03:03:18;;;;;;;2.60;1.40;;;;;;;;;;6342577;28;20225;-78
2022/01/04 03:06:24;;;;;;;1.87;1.30;;;;;;;;;;6341976;28;20213;-78
2022/01/04 03:09:28;;;;;;;4.47;1.50;;;;;;;;;;6343251;28;20233;-78
2022/01/04 03:12:34;;;;;;;4.87;1.70;;;;;;;;;;6342523;28;20186;-78
2022/01/04 03:15:38;;;;;;;4.50;1.50;;;;;;;;;;6342373;28;20195;-79
2022/01/04 03:19:02;;;;;;;5.50;1.63;;;;;;;;;;6342172;28;20190;-78
2022/01/04 03:22:09;;;;;;;11.90;1.70;;;;;;;;;;6342139;28;20217;-78
2022/01/04 03:25:14;;;;;;;7.00;1.50;;;;;;;;;;6341254;28;20213;-78
2022/01/04 03:28:20;;;;;;;10.13;1.30;;;;;;;;;;6341954;28;20194;-78
2022/01/04 03:31:25;;;;;;;3.23;1.27;;;;;;;;;;6341079;28;20505;-78
2022/01/04 03:34:30;;;;;;;4.00;1.60;;;;;;;;;;6341364;28;20186;-78
2022/01/04 03:37:36;;;;;;;4.20;1.40;;;;;;;;;;6342348;28;20194;-78
2022/01/04 03:40:40;;;;;;;1.53;1.40;;;;;;;;;;6341942;28;20210;-78
2022/01/04 03:43:44;;;;;;;3.70;1.57;;;;;;;;;;6341992;28;20193;-78
2022/01/04 03:46:55;;;;;;;5.07;1.30;;;;;;;;;;6340752;28;20213;-78
2022/01/04 03:49:59;;;;;;;1.13;1.13;;;;;;;;;;6341569;28;20197;-78
2022/01/04 03:53:05;;;;;;;2.10;1.03;;;;;;;;;;6340825;28;20189;-79
2022/01/04 03:56:12;;;;;;;1.40;1.30;;;;;;;;;;6340821;28;20304;-78
2022/01/04 03:59:17;;;;;;;3.10;1.77;;;;;;;;;;6340581;28;20295;-78
2022/01/04 04:02:22;;;;;;;1.30;1.20;;;;;;;;;;6339902;28;20186;-78
2022/01/04 04:05:26;;;;;;;4.43;1.20;;;;;;;;;;6339254;28;20500;-78
2022/01/04 04:08:31;;;;;;;4.93;1.07;;;;;;;;;;6339596;28;20257;-78
2022/01/04 04:11:35;;;;;;;5.87;1.10;;;;;;;;;;6339298;28;20447;-78
2022/01/04 04:14:39;;;;;;;2.43;1.00;;;;;;;;;;6340026;28;20220;-78
2022/01/04 04:17:49;;;;;;;2.77;0.90;;;;;;;;;;6340150;28;20192;-78
2022/01/04 04:20:53;;;;;;;6.57;1.20;;;;;;;;;;6339519;28;20210;-78
2022/01/04 04:23:58;;;;;;;2.40;1.27;;;;;;;;;;6339490;28;20186;-78
2022/01/04 04:27:02;;;;;;;0.97;0.97;;;;;;;;;;6339627;28;20482;-78
2022/01/04 04:30:08;;;;;;;1.37;1.37;;;;;;;;;;6339777;28;20189;-78
2022/01/04 04:33:15;;;;;;;5.37;1.40;;;;;;;;;;6340271;28;20207;-78
2022/01/04 04:36:20;;;;;;;0.90;0.90;;;;;;;;;;6341145;28;20248;-81
2022/01/04 04:39:25;;;;;;;2.23;0.90;;;;;;;;;;6342669;28;20185;-79
2022/01/04 04:42:29;;;;;;;1.37;1.23;;;;;;;;;;6342821;28;20212;-79
2022/01/04 04:45:36;;;;;;;1.70;1.00;;;;;;;;;;6343644;28;20194;-79
2022/01/04 04:48:41;;;;;;;2.90;1.10;;;;;;;;;;6306980;28;20304;-79
2022/01/04 04:51:45;;;;;;;1.93;1.20;;;;;;;;;;6318594;28;20226;-80
2022/01/04 04:54:50;;;;;;;2.80;1.10;;;;;;;;;;6319000;28;20251;-79
2022/01/04 04:57:54;;;;;;;1.10;1.10;;;;;;;;;;6317873;28;20184;-79
2022/01/04 05:00:58;;;;;;;4.60;0.90;;;;;;;;;;6317433;28;20280;-79
2022/01/04 05:04:04;;;;;;;4.93;1.20;;;;;;;;;;6317037;28;20193;-81
2022/01/04 05:07:08;;;;;;;1.00;1.00;;;;;;;;;;6316798;28;20184;-79
2022/01/04 05:10:14;;;;;;;5.00;1.53;;;;;;;;;;6315378;28;20215;-79
2022/01/04 05:13:19;;;;;;;1.07;1.07;;;;;;;;;;6315006;28;20184;-78
2022/01/04 05:16:23;;;;;;;1.03;1.03;;;;;;;;;;6316331;28;20185;-79
2022/01/04 05:19:27;;;;;;;2.13;1.20;;;;;;;;;;6319118;28;20198;-78
2022/01/04 05:22:32;;;;;;;1.10;1.10;;;;;;;;;;6318896;28;20218;-78
2022/01/04 05:25:38;;;;;;;5.50;2.10;;;;;;;;;;6319352;28;20213;-78
2022/01/04 05:28:45;;;;;;;8.10;5.13;;;;;;;;;;6319096;28;20184;-78
2022/01/04 05:31:49;;;;;;;1.77;1.00;;;;;;;;;;6318775;28;20213;-78
2022/01/04 05:34:53;;;;;;;2.43;1.13;;;;;;;;;;6319062;28;20344;-78
2022/01/04 05:37:57;;;;;;;2.47;1.13;;;;;;;;;;6318835;28;20215;-78
2022/01/04 05:41:03;;;;;;;1.73;1.10;;;;;;;;;;6319153;28;20212;-78
2022/01/04 05:44:08;;;;;;;0.90;0.90;;;;;;;;;;6317955;28;20463;-78
2022/01/04 05:47:12;;;;;;;5.87;5.23;;;;;;;;;;6324204;28;20227;-78
2022/01/04 05:50:16;;;;;;;1.13;0.80;;;;;;;;;;6342310;28;20253;-78
2022/01/04 05:53:20;;;;;;;1.33;1.20;;;;;;;;;;6341683;28;20524;-78
2022/01/04 05:56:26;;;;;;;3.80;1.20;;;;;;;;;;6343017;28;20218;-78
2022/01/04 05:59:30;;;;;;;1.00;1.00;;;;;;;;;;6342497;28;20184;-78
2022/01/04 06:02:35;;;;;;;3.00;2.20;;;;;;;;;;6341155;28;20559;-78
2022/01/04 06:05:40;;;;;;;1.57;1.10;;;;;;;;;;6342147;28;20466;-79
2022/01/04 06:08:44;;;;;;;5.03;1.97;;;;;;;;;;6344403;28;20269;-79
2022/01/04 06:12:00;;;;;;;0.90;0.90;;;;;;;;;;6343917;28;20221;-79
2022/01/04 06:15:06;;;;;;;2.10;1.00;;;;;;;;;;6344341;28;20330;-79
2022/01/04 06:18:12;;;;;;;1.00;1.00;;;;;;;;;;6342542;28;20482;-79
2022/01/04 06:21:16;;;;;;;1.10;1.10;;;;;;;;;;6342481;28;20386;-79
2022/01/04 06:24:20;;;;;;;2.70;1.33;;;;;;;;;;6343643;28;20251;-79
2022/01/04 06:27:26;;;;;;;0.97;0.97;;;;;;;;;;6343051;28;20472;-79
2022/01/04 06:30:30;;;;;;;1.70;0.90;;;;;;;;;;6342652;28;20269;-79
2022/01/04 06:33:34;;;;;;;0.93;0.93;;;;;;;;;;6343450;28;20195;-79
2022/01/04 06:36:39;;;;;;;1.43;1.10;;;;;;;;;;6343752;28;20292;-79
2022/01/04 06:39:44;;;;;;;1.30;1.20;;;;;;;;;;6342170;28;20525;-79
2022/01/04 06:42:49;;;;;;;1.07;1.00;;;;;;;;;;6342975;28;20210;-79
2022/01/04 06:45:53;;;;;;;3.93;1.27;;;;;;;;;;6342624;28;20197;-79
2022/01/04 06:48:57;;;;;;;2.27;1.20;;;;;;;;;;6341930;28;20241;-79
2022/01/04 06:52:01;;;;;;;2.23;1.20;;;;;;;;;;6343145;28;20228;-79
2022/01/04 06:55:06;;;;;;;1.20;1.20;;;;;;;;;;6343419;28;20185;-79
2022/01/04 06:58:12;;;;;;;1.30;1.10;;;;;;;;;;6343124;28;20227;-79
2022/01/04 07:01:16;;;;;;;2.90;1.20;;;;;;;;;;6341533;28;20393;-79
2022/01/04 07:04:20;;;;;;;1.13;0.90;;;;;;;;;;6342939;28;20235;-79
2022/01/04 07:07:25;;;;;;;1.03;1.03;;;;;;;;;;6342263;28;20202;-79
2022/01/04 07:10:29;;;;;;;1.10;1.10;;;;;;;;;;6343112;28;20260;-79
2022/01/04 07:13:34;;;;;;;1.00;1.00;;;;;;;;;;6358523;28;20205;-79
2022/01/04 07:16:39;;;;;;;4.13;1.20;;;;;;;;;;6341979;28;20207;-79
2022/01/04 07:19:46;;;;;;;1.50;1.27;;;;;;;;;;6341698;28;20229;-79
2022/01/04 07:22:50;;;;;;;1.23;1.10;;;;;;;;;;6342018;28;20271;-79
2022/01/04 07:25:55;;;;;;;5.90;1.40;;;;;;;;;;6341718;28;20190;-79
2022/01/04 07:29:00;;;;;;;2.43;1.10;;;;;;;;;;6340607;28;20361;-79
2022/01/04 07:32:05;;;;;;;4.13;1.27;;;;;;;;;;6340546;28;20488;-79
2022/01/04 07:35:10;;;;;;;4.93;4.40;;;;;;;;;;6339531;28;20489;-79
2022/01/04 07:38:17;;;;;;;1.33;1.33;;;;;;;;;;6340465;28;20243;-79
2022/01/04 07:41:21;;;;;;;1.07;1.07;;;;;;;;;;6340693;28;20231;-79
2022/01/04 07:44:27;;;;;;;5.00;1.57;;;;;;;;;;6340612;28;20187;-79
2022/01/04 07:47:31;;;;;;;7.50;1.20;;;;;;;;;;6339850;28;20234;-79
2022/01/04 07:50:35;;;;;;;1.10;1.10;;;;;;;;;;6341266;28;20185;-79
2022/01/04 07:53:39;;;;;;;7.73;1.30;;;;;;;;;;6339559;28;20281;-79
2022/01/04 07:56:43;;;;;;;11.50;10.33;;;;;;;;;;6340173;28;20495;-79
2022/01/04 07:59:54;;;;;;;9.27;2.27;;;;;;;;;;6341435;28;20284;-79
2022/01/04 08:02:58;;;;;;;3.90;1.70;;;;;;;;;;6340585;28;20221;-79
2022/01/04 08:06:02;;;;;;;4.70;3.33;;;;;;;;;;6340227;28;20224;-79
2022/01/04 08:09:07;;;;;;;1.10;1.00;;;;;;;;;;6341581;28;20259;-79
2022/01/04 08:12:11;;;;;;;9.73;8.77;;;;;;;;;;6341844;28;20269;-79
2022/01/04 08:15:17;;;;;;;1.10;1.10;;;;;;;;;;6340476;28;20217;-79
2022/01/04 08:18:21;;;;;;;2.40;1.20;;;;;;;;;;6341098;28;20476;-79
2022/01/04 08:21:25;;;;;;;1.33;1.33;;;;;;;;;;6340705;28;20186;-79
2022/01/04 08:24:29;;;;;;;3.60;1.17;;;;;;;;;;6339733;28;20217;-80
2022/01/04 08:27:33;;;;;;;2.43;1.30;;;;;;;;;;6339354;28;20255;-78
2022/01/04 08:30:40;;;;;;;1.13;1.13;;;;;;;;;;6338039;28;20461;-78
2022/01/04 08:33:45;;;;;;;5.00;1.20;;;;;;;;;;6338719;28;20235;-79
2022/01/04 08:36:49;;;;;;;2.67;1.20;;;;;;;;;;6339279;28;20221;-78
2022/01/04 08:39:54;;;;;;;3.93;1.40;;;;;;;;;;6337722;28;20433;-78
2022/01/04 08:42:58;;;;;;;3.07;1.47;;;;;;;;;;6338601;28;20285;-78
2022/01/04 08:46:03;;;;;;;5.80;1.30;;;;;;;;;;6337592;28;20194;-78
2022/01/04 08:49:08;;;;;;;3.07;1.23;;;;;;;;;;6338955;28;20245;-78
2022/01/04 08:52:13;;;;;;;10.70;1.30;;;;;;;;;;6337521;28;20268;-78
2022/01/04 08:55:17;;;;;;;1.30;1.20;;;;;;;;;;6339175;28;20255;-78
2022/01/04 08:58:21;;;;;;;8.37;1.60;;;;;;;;;;6337338;28;20193;-78
2022/01/04 09:01:27;;;;;;;2.03;1.50;;;;;;;;;;6337500;28;20194;-78
2022/01/04 09:04:31;;;;;;;4.10;1.00;;;;;;;;;;6338188;28;20296;-78
2022/01/04 09:07:36;;;;;;;2.30;1.30;;;;;;;;;;6338191;28;20515;-78
2022/01/04 09:10:40;;;;;;;4.13;1.57;;;;;;;;;;6339707;28;20213;-79
2022/01/04 09:13:45;;;;;;;1.20;1.20;;;;;;;;;;6339402;28;20190;-79
2022/01/04 09:20:14;;;;;;;1.27;1.20;;;;;;;;;;6339563;28;20191;-79
2022/01/04 09:23:20;;;;;;;1.37;1.23;;;;;;;;;;6340361;28;20517;-79
2022/01/04 09:26:25;;;;;;;3.67;1.57;;;;;;;;;;6344379;28;20249;-79
2022/01/04 09:29:30;;;;;;;3.23;1.53;;;;;;;;;;6344432;28;20191;-79
2022/01/04 09:32:36;;;;;;;4.53;1.57;;;;;;;;;;6343285;28;20239;-79
2022/01/04 09:35:41;;;;;;;5.87;1.53;;;;;;;;;;6342689;28;20217;-79
2022/01/04 09:38:45;;;;;;;4.27;1.33;;;;;;;;;;6344258;28;20293;-79
2022/01/04 09:41:51;;;;;;;1.87;1.40;;;;;;;;;;6341737;28;20223;-79
2022/01/04 09:44:55;;;;;;;3.00;1.23;;;;;;;;;;6343268;28;20210;-79
2022/01/04 09:48:00;;;;;;;4.77;1.50;;;;;;;;;;6342549;28;20551;-79
2022/01/04 09:51:05;;;;;;;7.93;1.50;;;;;;;;;;6342785;28;20192;-81
2022/01/04 09:54:09;;;;;;;8.07;1.47;;;;;;;;;;6343105;28;20470;-80
2022/01/04 09:57:15;;;;;;;8.27;1.93;;;;;;;;;;6343895;28;20260;-79
2022/01/04 10:00:20;;;;;;;9.60;1.73;;;;;;;;;;6343486;28;20186;-79
2022/01/04 10:03:29;;;;;;;21.07;17.07;;;;;;;;;;6342746;28;20238;-78
2022/01/04 10:06:37;;;;;;;4.53;2.27;;;;;;;;;;6342752;28;20185;-79
2022/01/04 10:09:45;;;;;;;8.50;1.80;;;;;;;;;;6341834;28;20202;-77
2022/01/04 10:12:52;;;;;;;5.63;1.40;;;;;;;;;;6342095;28;20264;-79
2022/01/04 10:15:56;;;;;;;6.27;1.40;;;;;;;;;;6343323;28;20186;-76
2022/01/04 10:19:08;;;;;;;7.70;1.57;;;;;;;;;;6341647;28;20186;-79
2022/01/04 10:22:18;;;;;;;12.10;7.83;;;;;;;;;;6342720;28;20190;-78
2022/01/04 10:25:22;;;;;;;5.80;1.27;;;;;;;;;;6341229;28;20248;-78
2022/01/04 10:28:30;;;;;;;3.70;1.50;;;;;;;;;;6341833;28;20184;-79
2022/01/04 10:31:38;;;;;;;7.33;1.10;;;;;;;;;;6341429;28;20408;-78
2022/01/04 10:34:47;;;;;;;6.13;1.90;;;;;;;;;;6324002;28;20217;-78
2022/01/04 10:37:52;;;;;;;26.93;19.23;;;;;;;;;;6341572;28;20186;-78
2022/01/04 10:41:01;;;;;;;2.03;1.77;;;;;;;;;;6341761;28;20183;-78
2022/01/04 10:44:07;;;;;;;7.00;2.07;;;;;;;;;;6341168;28;20207;-79
2022/01/04 10:47:12;;;;;;;3.40;1.43;;;;;;;;;;6358289;28;20542;-79
2022/01/04 10:50:31;;;;;;;5.17;1.17;;;;;;;;;;6342417;28;20184;-79
2022/01/04 10:53:37;;;;;;;9.33;1.43;;;;;;;;;;6342089;28;20232;-79
2022/01/04 10:56:42;;;;;;;4.47;1.33;;;;;;;;;;6342086;28;20186;-79
2022/01/04 10:59:45;;;;;;;7.77;1.50;;;;;;;;;;6342305;28;20217;-81
2022/01/04 11:02:50;;;;;;;7.03;1.50;;;;;;;;;;6341865;28;20209;-78
2022/01/04 11:05:58;;;;;;;2.50;1.90;;;;;;;;;;6340361;28;20300;-78
2022/01/04 11:09:03;;;;;;;11.27;1.70;;;;;;;;;;6341957;28;20202;-80
2022/01/04 11:12:09;;;;;;;9.40;7.57;;;;;;;;;;6341504;28;20184;-80
2022/01/04 11:15:13;;;;;;;18.00;16.20;;;;;;;;;;6340918;28;20219;-80
2022/01/04 11:18:20;;;;;;;1.30;1.30;;;;;;;;;;6341230;28;20240;-80
2022/01/04 11:21:28;;;;;;;1.93;1.23;;;;;;;;;;6341758;28;20190;-80
2022/01/04 11:24:34;;;;;;;3.33;1.37;;;;;;;;;;6341619;28;20214;-79
2022/01/04 11:27:40;;;;;;;2.63;1.27;;;;;;;;;;6340275;28;20240;-79
2022/01/04 11:30:58;;;;;;;1.30;1.30;;;;;;;;;;6340911;28;20216;-79
2022/01/04 11:34:15;;;;;;;8.57;1.37;;;;;;;;;;6340438;28;20197;-79
2022/01/04 11:37:23;;;;;;;2.53;1.17;;;;;;;;;;6340400;28;20186;-79
2022/01/04 11:40:31;;;;;;;1.87;1.50;;;;;;;;;;6340565;28;20285;-79
2022/01/04 11:43:38;;;;;;;3.90;1.40;;;;;;;;;;6340332;28;20218;-79
2022/01/04 11:46:42;;;;;;;5.30;1.50;;;;;;;;;;6339816;28;20214;-79
2022/01/04 11:50:13;;;;;;;4.57;1.20;;;;;;;;;;6340469;28;20183;-79
2022/01/04 11:53:19;;;;;;;8.37;1.80;;;;;;;;;;6340063;28;20251;-79
2022/01/04 11:56:46;;;;;;;6.57;4.70;;;;;;;;;;6340698;28;20190;-79
2022/01/04 12:00:01;;;;;;;5.33;4.93;;;;;;;;;;6340070;28;20214;-78
2022/01/04 12:03:20;;;;;;;3.70;1.80;;;;;;;;;;6338754;28;20187;-78
2022/01/04 12:06:41;;;;;;;3.03;1.30;;;;;;;;;;6340493;28;20214;-80
2022/01/04 12:09:48;;;;;;;7.33;6.00;;;;;;;;;;6341129;28;20202;-79
2022/01/04 12:12:56;;;;;;;11.33;4.77;;;;;;;;;;6339316;28;20187;-78
2022/01/04 12:16:06;;;;;;;10.37;5.50;;;;;;;;;;6340257;28;20280;-79
2022/01/04 12:19:11;;;;;;;4.83;1.67;;;;;;;;;;6345697;28;20283;-78
2022/01/04 12:22:29;;;;;;;34.73;18.17;;;;;;;;;;6346912;28;20186;-78
2022/01/04 12:25:38;;;;;;;2.30;1.30;;;;;;;;;;6345386;28;20276;-77
2022/01/04 12:28:43;;;;;;;9.43;1.47;;;;;;;;;;6346483;28;20184;-78
2022/01/04 12:31:49;;;;;;;5.03;1.50;;;;;;;;;;6341540;28;20220;-77
2022/01/04 12:35:06;;;;;;;5.27;1.53;;;;;;;;;;6337846;28;20189;-76
2022/01/04 12:38:15;;;;;;;7.03;1.30;;;;;;;;;;6339690;28;20186;-77
2022/01/04 12:41:20;;;;;;;1.40;1.40;;;;;;;;;;6339054;28;20241;-78
2022/01/04 12:44:26;;;;;;;3.40;1.53;;;;;;;;;;6338977;28;20221;-79
2022/01/04 12:47:30;;;;;;;4.03;3.13;;;;;;;;;;6339643;28;20227;-77
2022/01/04 12:50:34;;;;;;;4.53;1.50;;;;;;;;;;6338481;28;20224;-77
2022/01/04 12:53:39;;;;;;;3.10;1.27;;;;;;;;;;6322505;28;20246;-78
2022/01/04 12:56:47;;;;;;;1.40;1.40;;;;;;;;;;6339280;28;20190;-78
2022/01/04 12:59:53;;;;;;;6.90;1.40;;;;;;;;;;6343401;28;20190;-76
2022/01/04 13:02:57;;;;;;;6.20;1.73;;;;;;;;;;6342690;28;20266;-80
2022/01/04 13:06:04;;;;;;;5.40;1.57;;;;;;;;;;6344325;28;20210;-77
2022/01/04 13:09:08;;;;;;;6.83;1.57;;;;;;;;;;6344067;28;20378;-77
2022/01/04 13:12:13;;;;;;;6.60;1.40;;;;;;;;;;6343464;28;20186;-78
2022/01/04 13:15:20;;;;;;;5.43;0.90;;;;;;;;;;6343557;28;20407;-79
2022/01/04 13:18:28;;;;;;;1.90;1.57;;;;;;;;;;6343763;28;20183;-78
2022/01/04 13:21:32;;;;;;;3.77;1.10;;;;;;;;;;6343531;28;20193;-79
2022/01/04 13:24:38;;;;;;;6.80;1.50;;;;;;;;;;6345423;28;20190;-81
2022/01/04 13:27:45;;;;;;;1.77;1.40;;;;;;;;;;6345797;28;20186;-79
2022/01/04 13:30:50;;;;;;;4.27;1.40;;;;;;;;;;6344868;28;20183;-85
2022/01/04 13:33:55;;;;;;;4.70;1.53;;;;;;;;;;6344339;28;20190;-82
2022/01/04 13:36:59;;;;;;;1.27;1.27;;;;;;;;;;6344814;28;20276;-81
2022/01/04 13:40:07;;;;;;;3.77;1.40;;;;;;;;;;6324419;28;20478;-78
2022/01/04 13:43:13;;;;;;;6.37;1.63;;;;;;;;;;6340513;28;20378;-76
2022/01/04 13:46:27;;;;;;;4.07;1.73;;;;;;;;;;6342781;28;20210;-79
2022/01/04 13:49:31;;;;;;;8.77;3.50;;;;;;;;;;6341413;28;20482;-79
2022/01/04 13:52:36;;;;;;;7.17;1.60;;;;;;;;;;6342261;28;20193;-81
2022/01/04 13:55:56;;;;;;;4.17;1.63;;;;;;;;;;6342917;28;20196;-77
2022/01/04 13:59:01;;;;;;;3.77;1.40;;;;;;;;;;6340871;28;20232;-76
2022/01/04 14:02:24;;;;;;;7.37;2.93;;;;;;;;;;6340202;28;20209;-77
2022/01/04 14:05:36;;;;;;;4.70;1.80;;;;;;;;;;6340856;28;20213;-76
2022/01/04 14:08:49;;;;;;;2.70;1.50;;;;;;;;;;6341068;28;20202;-77
2022/01/04 14:11:55;;;;;;;1.57;1.47;;;;;;;;;;6340457;28;20185;-76
2022/01/04 14:15:08;;;;;;;1.73;1.50;;;;;;;;;;6339778;28;20499;-76
2022/01/04 14:18:16;;;;;;;12.73;2.77;;;;;;;;;;6342508;28;20186;-78
2022/01/04 14:21:30;;;;;;;4.23;1.40;;;;;;;;;;6343261;28;20265;-79
2022/01/04 14:24:40;;;;;;;3.53;1.60;;;;;;;;;;6344962;28;20186;-76
2022/01/04 14:27:46;;;;;;;6.93;2.22;;;;;;;;;;6341674;28;20824;-81
2022/01/04 14:30:51;;;;;;;5.37;1.47;;;;;;;;;;6341290;28;20494;-78
2022/01/04 14:33:56;;;;;;;1.93;1.50;;;;;;;;;;6341320;28;20185;-78
2022/01/04 14:37:22;;;;;;;33.90;13.40;;;;;;;;;;6341898;28;20226;-78
2022/01/04 14:40:28;;;;;;;98.50;56.77;;;;;;;;;;6341941;28;20184;-78
2022/01/04 14:43:32;;;;;;;17.50;10.03;;;;;;;;;;6341604;28;20187;-78
2022/01/04 14:46:38;;;;;;;6.53;4.73;;;;;;;;;;6341101;28;20210;-78
2022/01/04 14:49:42;;;;;;;16.27;8.07;;;;;;;;;;6341740;28;20184;-78
2022/01/04 14:52:47;;;;;;;1.37;1.27;;;;;;;;;;6341513;28;20186;-78
2022/01/04 14:55:51;;;;;;;6.70;1.40;;;;;;;;;;6340703;28;20190;-78
2022/01/04 14:59:06;;;;;;;4.07;1.60;;;;;;;;;;6341012;28;20186;-78
2022/01/04 15:02:12;;;;;;;1.57;1.20;;;;;;;;;;6339567;28;20184;-78
2022/01/04 15:05:17;;;;;;;8.93;1.80;;;;;;;;;;6339891;28;20370;-78
2022/01/04 15:08:21;;;;;;;3.73;1.23;;;;;;;;;;6355188;28;20253;-78
2022/01/04 15:11:25;;;;;;;1.57;1.47;;;;;;;;;;6340516;28;20218;-77
2022/01/04 15:14:29;;;;;;;2.10;1.43;;;;;;;;;;6340587;28;20304;-77
2022/01/04 15:17:35;;;;;;;2.43;1.40;;;;;;;;;;6339764;28;20212;-77
2022/01/04 15:20:39;;;;;;;2.70;1.50;;;;;;;;;;6337577;28;20384;-78
2022/01/04 15:23:44;;;;;;;6.13;1.60;;;;;;;;;;6339130;28;20186;-77
2022/01/04 15:26:47;;;;;;;5.73;1.40;;;;;;;;;;6339514;28;20214;-77
2022/01/04 15:29:52;;;;;;;15.67;1.60;;;;;;;;;;6338913;28;20185;-77
2022/01/04 15:32:58;;;;;;;4.43;1.40;;;;;;;;;;6338023;28;20522;-77
2022/01/04 15:36:04;;;;;;;5.10;1.43;;;;;;;;;;6340041;28;20255;-76
2022/01/04 15:39:20;;;;;;;3.63;1.50;;;;;;;;;;6340930;28;20261;-78
2022/01/04 15:42:26;;;;;;;8.47;1.60;;;;;;;;;;6341142;28;20335;-79
2022/01/04 15:45:31;;;;;;;2.93;1.30;;;;;;;;;;6340903;28;20272;-79
2022/01/04 15:48:36;;;;;;;6.20;1.63;;;;;;;;;;6337713;28;20237;-79
2022/01/04 15:51:41;;;;;;;9.07;1.40;;;;;;;;;;6339677;28;20354;-79
2022/01/04 15:54:45;;;;;;;4.43;1.47;;;;;;;;;;6340336;28;20233;-78
2022/01/04 15:57:49;;;;;;;3.60;1.30;;;;;;;;;;6339780;28;20201;-79
2022/01/04 16:00:53;;;;;;;5.73;1.67;;;;;;;;;;6337655;28;20228;-77
2022/01/04 16:03:59;;;;;;;1.23;1.23;;;;;;;;;;6337332;28;20301;-77
2022/01/04 16:07:04;;;;;;;11.13;1.63;;;;;;;;;;6339900;28;20284;-77
2022/01/04 16:10:10;;;;;;;4.57;1.50;;;;;;;;;;6339299;28;20236;-78
2022/01/04 16:13:15;;;;;;;2.40;1.30;;;;;;;;;;6339410;28;20192;-78
2022/01/04 16:16:24;;;;;;;8.07;2.00;;;;;;;;;;6340134;28;20480;-78
2022/01/04 16:22:52;;;;;;;5.00;1.53;;;;;;;;;;6338691;28;20469;-78
2022/01/04 16:25:56;;;;;;;4.10;1.47;;;;;;;;;;6338340;28;20353;-78
2022/01/04 16:29:03;;;;;;;1.77;1.40;;;;;;;;;;6338858;28;20253;-78
2022/01/04 16:32:07;;;;;;;1.87;1.33;;;;;;;;;;6338926;28;20185;-78
2022/01/04 16:35:17;;;;;;;9.70;1.60;;;;;;;;;;6339214;28;20213;-78
2022/01/04 16:38:21;;;;;;;4.67;1.83;;;;;;;;;;6339095;28;20194;-78
2022/01/04 16:41:25;;;;;;;2.77;1.40;;;;;;;;;;6337688;28;20184;-78
2022/01/04 16:44:29;;;;;;;4.97;1.60;;;;;;;;;;6337633;28;20330;-78
2022/01/04 16:47:33;;;;;;;1.40;1.40;;;;;;;;;;6337761;28;20521;-78
2022/01/04 16:50:40;;;;;;;4.17;1.27;;;;;;;;;;6338643;28;20184;-78
2022/01/04 16:53:45;;;;;;;1.90;1.57;;;;;;;;;;6338741;28;20262;-78
2022/01/04 16:56:49;;;;;;;5.73;1.40;;;;;;;;;;6339082;28;20216;-78
2022/01/04 16:59:54;;;;;;;8.73;1.60;;;;;;;;;;6338828;28;20185;-78
2022/01/04 17:02:58;;;;;;;5.73;1.43;;;;;;;;;;6338429;28;20191;-78
2022/01/04 17:06:04;;;;;;;6.57;1.20;;;;;;;;;;6338740;28;20186;-78
2022/01/04 17:09:13;;;;;;;8.60;1.80;;;;;;;;;;6337349;28;20245;-78
2022/01/04 17:15:36;;;;;;;4.53;1.80;;;;;;;;;;6337138;28;20224;-79
2022/01/04 17:18:40;;;;;;;8.70;1.50;;;;;;;;;;6339020;28;20196;-78
2022/01/04 17:21:45;;;;;;;2.10;1.50;;;;;;;;;;6339050;28;20238;-79
2022/01/04 17:25:14;;;;;;;1.40;1.30;;;;;;;;;;6338574;28;20186;-79
2022/01/04 17:28:18;;;;;;;9.03;1.60;;;;;;;;;;6338667;28;20217;-79
2022/01/04 17:31:22;;;;;;;5.63;1.60;;;;;;;;;;6339847;28;20193;-79
2022/01/04 17:34:27;;;;;;;3.73;1.83;;;;;;;;;;6339077;28;20193;-79
2022/01/04 17:37:34;;;;;;;1.80;1.40;;;;;;;;;;6338907;28;20221;-78
2022/01/04 17:40:58;;;;;;;2.67;1.60;;;;;;;;;;6339208;28;20215;-78
2022/01/04 17:44:04;;;;;;;7.13;1.70;;;;;;;;;;6338431;28;20234;-78
2022/01/04 17:47:08;;;;;;;1.50;1.43;;;;;;;;;;6342411;28;20535;-78
2022/01/04 17:50:15;;;;;;;4.63;1.83;;;;;;;;;;6343348;28;20258;-79
2022/01/04 17:53:21;;;;;;;6.27;1.80;;;;;;;;;;6343600;28;20197;-78
2022/01/04 17:56:25;;;;;;;10.13;1.67;;;;;;;;;;6341802;28;20546;-78
2022/01/04 17:59:29;;;;;;;5.17;1.50;;;;;;;;;;6343059;28;20204;-79
2022/01/04 18:02:33;;;;;;;8.33;1.97;;;;;;;;;;6342700;28;20255;-80
2022/01/04 18:05:38;;;;;;;5.40;1.43;;;;;;;;;;6341957;28;20186;-79
2022/01/04 18:08:44;;;;;;;1.83;1.37;;;;;;;;;;6343342;28;20281;-79
2022/01/04 18:11:48;;;;;;;3.83;1.43;;;;;;;;;;6342988;28;20232;-78
2022/01/04 18:14:52;;;;;;;3.23;1.40;;;;;;;;;;6343720;28;20447;-79
2022/01/04 18:17:56;;;;;;;5.97;1.77;;;;;;;;;;6343785;28;20188;-79
2022/01/04 18:21:00;;;;;;;5.13;1.50;;;;;;;;;;6342284;28;20467;-78
2022/01/04 18:24:06;;;;;;;1.63;1.53;;;;;;;;;;6343031;28;20192;-78
2022/01/04 18:27:11;;;;;;;3.80;1.30;;;;;;;;;;6343064;28;20186;-80
2022/01/04 18:30:16;;;;;;;5.53;1.67;;;;;;;;;;6344404;28;20212;-79
2022/01/04 18:33:20;;;;;;;8.23;1.83;;;;;;;;;;6342882;28;20184;-78
2022/01/04 18:36:24;;;;;;;2.57;1.67;;;;;;;;;;6343331;28;20183;-80
2022/01/04 18:39:30;;;;;;;4.07;1.60;;;;;;;;;;6342351;28;20187;-79
2022/01/04 18:42:35;;;;;;;5.53;1.40;;;;;;;;;;6342300;28;20192;-78